sensor_id;sensor_type;location;lat;lon;timestamp;temperature;humidity
55648;DHT22;45266;48.756;9.246;2023-09-12T00:00:05;17.30;99.90
55648;DHT22;45266;48.756;9.246;2023-09-12T00:01:07;17.30;99.90
55648;DHT22;45266;48.756;9.246;2023-09-12T00:02:09;17.30;99.90
55648;DHT22;45266;48.756;9.246;2023-09-12T00:03:11;17.30;99.90
55648;DHT22;45266;48.756;9.246;2023-09-12T00:04:13;17.30;99.90
55648;DHT22;45266;48.756;9.246;2023-09-12T00:05:15;17.20;99.90
55648;DHT22;45266;48.756;9.246;2023-09-12T00:06:17;17.20;99.90
55648;DHT22;45266;48.756;9.246;2023-09-12T00:07:19;17.20;99.90
55648;DHT22;45266;48.756;9.246;2023-09-12T00:08:21;17.20;99.90
55648;DHT22;45266;48.756;9.246;2023-09-12T00:09:23;17.20;99.90
55648;DHT22;45266;48.756;9.246;2023-09-12T00:10:25;17.20;99.90
55648;DHT22;45266;48.756;9.246;2023-09-12T00:11:27;17.20;99.90
55648;DHT22;45266;48.756;9.246;2023-09-12T00:12:28;17.20;99.90
55648;DHT22;45266;48.756;9.246;2023-09-12T00:13:31;17.20;99.90
55648;DHT22;45266;48.756;9.246;2023-09-12T00:14:33;17.20;99.90
55648;DHT22;45266;48.756;9.246;2023-09-12T00:15:35;17.20;99.90
55648;DHT22;45266;48.756;9.246;2023-09-12T00:16:37;17.20;99.90
55648;DHT22;45266;48.756;9.246;2023-09-12T00:17:39;17.10;99.90
55648;DHT22;45266;48.756;9.246;2023-09-12T00:18:40;17.10;99.90
55648;DHT22;45266;48.756;9.246;2023-09-12T00:19:44;17.10;99.90
55648;DHT22;45266;48.756;9.246;2023-09-12T00:20:46;17.10;99.90
55648;DHT22;45266;48.756;9.246;2023-09-12T00:21:48;17.10;99.90
55648;DHT22;45266;48.756;9.246;2023-09-12T00:22:49;17.10;99.90
55648;DHT22;45266;48.756;9.246;2023-09-12T00:23:51;17.10;99.90
55648;DHT22;45266;48.756;9.246;2023-09-12T00:24:53;17.10;99.90
55648;DHT22;45266;48.756;9.246;2023-09-12T00:25:56;17.00;99.90
55648;DHT22;45266;48.756;9.246;2023-09-12T00:26:58;17.00;99.90
55648;DHT22;45266;48.756;9.246;2023-09-12T00:28:00;17.00;99.90
55648;DHT22;45266;48.756;9.246;2023-09-12T00:29:01;17.00;99.90
55648;DHT22;45266;48.756;9.246;2023-09-12T00:30:03;17.00;99.90
55648;DHT22;45266;48.756;9.246;2023-09-12T00:31:05;17.00;99.90
55648;DHT22;45266;48.756;9.246;2023-09-12T00:32:07;17.00;99.90
55648;DHT22;45266;48.756;9.246;2023-09-12T00:33:09;17.00;99.90
55648;DHT22;45266;48.756;9.246;2023-09-12T00:34:18;17.00;99.90
55648;DHT22;45266;48.756;9.246;2023-09-12T00:35:20;17.00;99.90
55648;DHT22;45266;48.756;9.246;2023-09-12T00:36:21;17.00;99.90
55648;DHT22;45266;48.756;9.246;2023-09-12T00:37:23;17.00;99.90
55648;DHT22;45266;48.756;9.246;2023-09-12T00:38:25;17.00;99.90
55648;DHT22;45266;48.756;9.246;2023-09-12T00:39:27;16.90;99.90
55648;DHT22;45266;48.756;9.246;2023-09-12T00:40:29;16.90;99.90
55648;DHT22;45266;48.756;9.246;2023-09-12T00:41:30;16.90;99.90
55648;DHT22;45266;48.756;9.246;2023-09-12T00:42:32;16.90;99.90
55648;DHT22;45266;48.756;9.246;2023-09-12T00:43:34;16.90;99.90
55648;DHT22;45266;48.756;9.246;2023-09-12T00:44:36;16.90;99.90
55648;DHT22;45266;48.756;9.246;2023-09-12T00:45:38;16.90;99.90
55648;DHT22;45266;48.756;9.246;2023-09-12T00:46:40;16.90;99.90
55648;DHT22;45266;48.756;9.246;2023-09-12T00:47:42;16.90;99.90
55648;DHT22;45266;48.756;9.246;2023-09-12T00:48:45;16.90;99.90
55648;DHT22;45266;48.756;9.246;2023-09-12T00:49:48;16.90;99.90
55648;DHT22;45266;48.756;9.246;2023-09-12T00:50:57;16.90;99.90
55648;DHT22;45266;48.756;9.246;2023-09-12T00:51:59;16.90;99.90
55648;DHT22;45266;48.756;9.246;2023-09-12T00:53:04;16.90;99.90
55648;DHT22;45266;48.756;9.246;2023-09-12T00:54:06;16.90;99.90
55648;DHT22;45266;48.756;9.246;2023-09-12T00:55:08;16.90;99.90
55648;DHT22;45266;48.756;9.246;2023-09-12T00:56:10;16.90;99.90
55648;DHT22;45266;48.756;9.246;2023-09-12T00:57:13;16.80;99.90
55648;DHT22;45266;48.756;9.246;2023-09-12T00:58:15;16.80;99.90
55648;DHT22;45266;48.756;9.246;2023-09-12T00:59:18;16.80;99.90
55648;DHT22;45266;48.756;9.246;2023-09-12T01:00:20;16.80;99.90
55648;DHT22;45266;48.756;9.246;2023-09-12T01:01:23;16.80;99.90
55648;DHT22;45266;48.756;9.246;2023-09-12T01:02:25;16.80;99.90
55648;DHT22;45266;48.756;9.246;2023-09-12T01:03:27;16.80;99.90
55648;DHT22;45266;48.756;9.246;2023-09-12T01:04:29;16.80;99.90
55648;DHT22;45266;48.756;9.246;2023-09-12T01:05:36;16.80;99.90
55648;DHT22;45266;48.756;9.246;2023-09-12T01:06:38;16.80;99.90
55648;DHT22;45266;48.756;9.246;2023-09-12T01:07:42;16.70;99.90
55648;DHT22;45266;48.756;9.246;2023-09-12T01:08:44;16.70;99.90
55648;DHT22;45266;48.756;9.246;2023-09-12T01:09:46;16.70;99.90
55648;DHT22;45266;48.756;9.246;2023-09-12T01:10:49;16.70;99.90
55648;DHT22;45266;48.756;9.246;2023-09-12T01:11:54;16.70;99.90
55648;DHT22;45266;48.756;9.246;2023-09-12T01:12:57;16.70;99.90
55648;DHT22;45266;48.756;9.246;2023-09-12T01:13:59;16.70;99.90
55648;DHT22;45266;48.756;9.246;2023-09-12T01:15:00;16.70;99.90
55648;DHT22;45266;48.756;9.246;2023-09-12T01:16:03;16.70;99.90
55648;DHT22;45266;48.756;9.246;2023-09-12T01:17:05;16.70;99.90
55648;DHT22;45266;48.756;9.246;2023-09-12T01:18:07;16.70;99.90
55648;DHT22;45266;48.756;9.246;2023-09-12T01:19:11;16.70;99.90
55648;DHT22;45266;48.756;9.246;2023-09-12T01:20:20;16.60;99.90
55648;DHT22;45266;48.756;9.246;2023-09-12T01:22:00;16.60;99.90
55648;DHT22;45266;48.756;9.246;2023-09-12T01:24:43;16.60;99.90
55648;DHT22;45266;48.756;9.246;2023-09-12T01:28:24;16.60;99.90
55648;DHT22;45266;48.756;9.246;2023-09-12T01:29:28;16.60;99.90
55648;DHT22;45266;48.756;9.246;2023-09-12T01:30:32;16.60;99.90
55648;DHT22;45266;48.756;9.246;2023-09-12T01:31:37;16.60;99.90
55648;DHT22;45266;48.756;9.246;2023-09-12T01:32:39;16.50;99.90
55648;DHT22;45266;48.756;9.246;2023-09-12T01:33:41;16.50;99.90
55648;DHT22;45266;48.756;9.246;2023-09-12T01:34:43;16.50;99.90
55648;DHT22;45266;48.756;9.246;2023-09-12T01:35:45;16.50;99.90
55648;DHT22;45266;48.756;9.246;2023-09-12T01:36:48;16.50;99.90
55648;DHT22;45266;48.756;9.246;2023-09-12T01:37:49;16.50;99.90
55648;DHT22;45266;48.756;9.246;2023-09-12T01:38:52;16.50;99.90
55648;DHT22;45266;48.756;9.246;2023-09-12T01:39:53;16.40;99.90
55648;DHT22;45266;48.756;9.246;2023-09-12T01:40:55;16.40;99.90
55648;DHT22;45266;48.756;9.246;2023-09-12T01:41:58;16.40;99.90
55648;DHT22;45266;48.756;9.246;2023-09-12T01:43:02;16.40;99.90
55648;DHT22;45266;48.756;9.246;2023-09-12T01:44:06;16.40;99.90
55648;DHT22;45266;48.756;9.246;2023-09-12T01:45:15;16.40;99.90
55648;DHT22;45266;48.756;9.246;2023-09-12T01:46:18;16.40;99.90
55648;DHT22;45266;48.756;9.246;2023-09-12T01:47:21;16.40;99.90
55648;DHT22;45266;48.756;9.246;2023-09-12T01:48:26;16.40;99.90
55648;DHT22;45266;48.756;9.246;2023-09-12T01:49:32;16.40;99.90
55648;DHT22;45266;48.756;9.246;2023-09-12T01:50:35;16.40;99.90
55648;DHT22;45266;48.756;9.246;2023-09-12T01:51:38;16.30;99.90
55648;DHT22;45266;48.756;9.246;2023-09-12T01:52:41;16.30;99.90
55648;DHT22;45266;48.756;9.246;2023-09-12T01:53:45;16.40;99.90
55648;DHT22;45266;48.756;9.246;2023-09-12T01:54:47;16.30;99.90
55648;DHT22;45266;48.756;9.246;2023-09-12T01:55:49;16.30;99.90
55648;DHT22;45266;48.756;9.246;2023-09-12T01:56:52;16.30;99.90
55648;DHT22;45266;48.756;9.246;2023-09-12T01:57:54;16.30;99.90
55648;DHT22;45266;48.756;9.246;2023-09-12T01:58:58;16.30;99.90
55648;DHT22;45266;48.756;9.246;2023-09-12T02:00:00;16.30;99.90
55648;DHT22;45266;48.756;9.246;2023-09-12T02:01:02;16.30;99.90
55648;DHT22;45266;48.756;9.246;2023-09-12T02:02:04;16.30;99.90
55648;DHT22;45266;48.756;9.246;2023-09-12T02:03:06;16.30;99.90
55648;DHT22;45266;48.756;9.246;2023-09-12T02:04:08;16.30;99.90
55648;DHT22;45266;48.756;9.246;2023-09-12T02:05:15;16.30;99.90
55648;DHT22;45266;48.756;9.246;2023-09-12T02:06:20;16.30;99.90
55648;DHT22;45266;48.756;9.246;2023-09-12T02:07:23;16.30;99.90
55648;DHT22;45266;48.756;9.246;2023-09-12T02:08:25;16.30;99.90
55648;DHT22;45266;48.756;9.246;2023-09-12T02:09:27;16.30;99.90
55648;DHT22;45266;48.756;9.246;2023-09-12T02:10:29;16.30;99.90
55648;DHT22;45266;48.756;9.246;2023-09-12T02:11:31;16.30;99.90
55648;DHT22;45266;48.756;9.246;2023-09-12T02:12:33;16.30;99.90
55648;DHT22;45266;48.756;9.246;2023-09-12T02:13:34;16.20;99.90
55648;DHT22;45266;48.756;9.246;2023-09-12T02:14:36;16.30;99.90
55648;DHT22;45266;48.756;9.246;2023-09-12T02:15:38;16.30;99.90
55648;DHT22;45266;48.756;9.246;2023-09-12T02:16:40;16.30;99.90
55648;DHT22;45266;48.756;9.246;2023-09-12T02:17:45;16.20;99.90
55648;DHT22;45266;48.756;9.246;2023-09-12T02:18:47;16.20;99.90
55648;DHT22;45266;48.756;9.246;2023-09-12T02:19:50;16.20;99.90
55648;DHT22;45266;48.756;9.246;2023-09-12T02:20:51;16.20;99.90
55648;DHT22;45266;48.756;9.246;2023-09-12T02:21:53;16.20;99.90
55648;DHT22;45266;48.756;9.246;2023-09-12T02:22:55;16.20;99.90
55648;DHT22;45266;48.756;9.246;2023-09-12T02:23:57;16.20;99.90
55648;DHT22;45266;48.756;9.246;2023-09-12T02:24:59;16.20;99.90
55648;DHT22;45266;48.756;9.246;2023-09-12T02:26:00;16.20;99.90
55648;DHT22;45266;48.756;9.246;2023-09-12T02:27:02;16.20;99.90
55648;DHT22;45266;48.756;9.246;2023-09-12T02:28:04;16.20;99.90
55648;DHT22;45266;48.756;9.246;2023-09-12T02:29:06;16.10;99.90
55648;DHT22;45266;48.756;9.246;2023-09-12T02:30:09;16.10;99.90
55648;DHT22;45266;48.756;9.246;2023-09-12T02:31:11;16.10;99.90
55648;DHT22;45266;48.756;9.246;2023-09-12T02:32:13;16.10;99.90
55648;DHT22;45266;48.756;9.246;2023-09-12T02:33:15;16.10;99.90
55648;DHT22;45266;48.756;9.246;2023-09-12T02:34:17;16.10;99.90
55648;DHT22;45266;48.756;9.246;2023-09-12T02:35:19;16.10;99.90
55648;DHT22;45266;48.756;9.246;2023-09-12T02:36:21;16.10;99.90
55648;DHT22;45266;48.756;9.246;2023-09-12T02:37:23;16.10;99.90
55648;DHT22;45266;48.756;9.246;2023-09-12T02:38:24;16.10;99.90
55648;DHT22;45266;48.756;9.246;2023-09-12T02:39:26;16.10;99.90
55648;DHT22;45266;48.756;9.246;2023-09-12T02:40:28;16.10;99.90
55648;DHT22;45266;48.756;9.246;2023-09-12T02:41:30;16.10;99.90
55648;DHT22;45266;48.756;9.246;2023-09-12T02:42:32;16.00;99.90
55648;DHT22;45266;48.756;9.246;2023-09-12T02:43:34;16.10;99.90
55648;DHT22;45266;48.756;9.246;2023-09-12T02:44:36;16.10;99.90
55648;DHT22;45266;48.756;9.246;2023-09-12T02:45:37;16.10;99.90
55648;DHT22;45266;48.756;9.246;2023-09-12T02:46:39;16.10;99.90
55648;DHT22;45266;48.756;9.246;2023-09-12T02:47:41;16.00;99.90
55648;DHT22;45266;48.756;9.246;2023-09-12T02:48:44;16.00;99.90
55648;DHT22;45266;48.756;9.246;2023-09-12T02:49:47;16.00;99.90
55648;DHT22;45266;48.756;9.246;2023-09-12T02:50:48;16.00;99.90
55648;DHT22;45266;48.756;9.246;2023-09-12T02:51:50;16.00;99.90
55648;DHT22;45266;48.756;9.246;2023-09-12T02:52:52;16.10;99.90
55648;DHT22;45266;48.756;9.246;2023-09-12T02:53:54;16.00;99.90
55648;DHT22;45266;48.756;9.246;2023-09-12T02:54:56;16.00;99.90
55648;DHT22;45266;48.756;9.246;2023-09-12T02:55:57;16.10;99.90
55648;DHT22;45266;48.756;9.246;2023-09-12T02:56:59;16.00;99.90
55648;DHT22;45266;48.756;9.246;2023-09-12T02:58:01;16.00;99.90
55648;DHT22;45266;48.756;9.246;2023-09-12T02:59:03;16.00;99.90
55648;DHT22;45266;48.756;9.246;2023-09-12T03:00:08;16.00;99.90
55648;DHT22;45266;48.756;9.246;2023-09-12T03:01:17;16.00;99.90
55648;DHT22;45266;48.756;9.246;2023-09-12T03:02:19;16.00;99.90
55648;DHT22;45266;48.756;9.246;2023-09-12T03:03:21;16.00;99.90
55648;DHT22;45266;48.756;9.246;2023-09-12T03:04:25;16.00;99.90
55648;DHT22;45266;48.756;9.246;2023-09-12T03:05:27;16.00;99.90
55648;DHT22;45266;48.756;9.246;2023-09-12T03:06:29;16.00;99.90
55648;DHT22;45266;48.756;9.246;2023-09-12T03:07:34;16.00;99.90
55648;DHT22;45266;48.756;9.246;2023-09-12T03:08:36;15.90;99.90
55648;DHT22;45266;48.756;9.246;2023-09-12T03:09:38;15.90;99.90
55648;DHT22;45266;48.756;9.246;2023-09-12T03:10:40;15.90;99.90
55648;DHT22;45266;48.756;9.246;2023-09-12T03:11:41;15.90;99.90
55648;DHT22;45266;48.756;9.246;2023-09-12T03:12:43;15.90;99.90
55648;DHT22;45266;48.756;9.246;2023-09-12T03:13:45;15.90;99.90
55648;DHT22;45266;48.756;9.246;2023-09-12T03:14:47;15.90;99.90
55648;DHT22;45266;48.756;9.246;2023-09-12T03:15:48;15.90;99.90
55648;DHT22;45266;48.756;9.246;2023-09-12T03:16:50;15.90;99.90
55648;DHT22;45266;48.756;9.246;2023-09-12T03:17:52;15.90;99.90
55648;DHT22;45266;48.756;9.246;2023-09-12T03:18:54;15.90;99.90
55648;DHT22;45266;48.756;9.246;2023-09-12T03:19:56;15.90;99.90
55648;DHT22;45266;48.756;9.246;2023-09-12T03:20:58;15.90;99.90
55648;DHT22;45266;48.756;9.246;2023-09-12T03:21:59;15.90;99.90
55648;DHT22;45266;48.756;9.246;2023-09-12T03:23:01;15.90;99.90
55648;DHT22;45266;48.756;9.246;2023-09-12T03:24:03;15.90;99.90
55648;DHT22;45266;48.756;9.246;2023-09-12T03:25:05;15.90;99.90
55648;DHT22;45266;48.756;9.246;2023-09-12T03:26:07;15.90;99.90
55648;DHT22;45266;48.756;9.246;2023-09-12T03:27:09;15.90;99.90
55648;DHT22;45266;48.756;9.246;2023-09-12T03:28:11;15.90;99.90
55648;DHT22;45266;48.756;9.246;2023-09-12T03:29:12;15.90;99.90
55648;DHT22;45266;48.756;9.246;2023-09-12T03:30:14;15.90;99.90
55648;DHT22;45266;48.756;9.246;2023-09-12T03:31:16;15.90;99.90
55648;DHT22;45266;48.756;9.246;2023-09-12T03:32:18;15.90;99.90
55648;DHT22;45266;48.756;9.246;2023-09-12T03:33:20;15.90;99.90
55648;DHT22;45266;48.756;9.246;2023-09-12T03:34:21;15.90;99.90
55648;DHT22;45266;48.756;9.246;2023-09-12T03:35:23;15.90;99.90
55648;DHT22;45266;48.756;9.246;2023-09-12T03:36:25;15.90;99.90
55648;DHT22;45266;48.756;9.246;2023-09-12T03:37:27;15.90;99.90
55648;DHT22;45266;48.756;9.246;2023-09-12T03:38:30;15.90;99.90
55648;DHT22;45266;48.756;9.246;2023-09-12T03:39:32;15.90;99.90
55648;DHT22;45266;48.756;9.246;2023-09-12T03:40:33;15.90;99.90
55648;DHT22;45266;48.756;9.246;2023-09-12T03:41:35;15.80;99.90
55648;DHT22;45266;48.756;9.246;2023-09-12T03:42:37;15.90;99.90
55648;DHT22;45266;48.756;9.246;2023-09-12T03:43:43;15.90;99.90
55648;DHT22;45266;48.756;9.246;2023-09-12T03:44:45;15.80;99.90
55648;DHT22;45266;48.756;9.246;2023-09-12T03:45:47;15.80;99.90
55648;DHT22;45266;48.756;9.246;2023-09-12T03:46:58;15.80;99.90
55648;DHT22;45266;48.756;9.246;2023-09-12T03:48:00;15.80;99.90
55648;DHT22;45266;48.756;9.246;2023-09-12T03:49:02;15.80;99.90
55648;DHT22;45266;48.756;9.246;2023-09-12T03:50:05;15.90;99.90
55648;DHT22;45266;48.756;9.246;2023-09-12T03:51:07;15.80;99.90
55648;DHT22;45266;48.756;9.246;2023-09-12T03:52:09;15.80;99.90
55648;DHT22;45266;48.756;9.246;2023-09-12T03:53:10;15.80;99.90
55648;DHT22;45266;48.756;9.246;2023-09-12T03:54:12;15.80;99.90
55648;DHT22;45266;48.756;9.246;2023-09-12T03:55:14;15.70;99.90
55648;DHT22;45266;48.756;9.246;2023-09-12T03:56:16;15.70;99.90
55648;DHT22;45266;48.756;9.246;2023-09-12T03:57:21;15.70;99.90
55648;DHT22;45266;48.756;9.246;2023-09-12T03:58:23;15.70;99.90
55648;DHT22;45266;48.756;9.246;2023-09-12T03:59:25;15.70;99.90
55648;DHT22;45266;48.756;9.246;2023-09-12T04:00:27;15.70;99.90
55648;DHT22;45266;48.756;9.246;2023-09-12T04:01:29;15.70;99.90
55648;DHT22;45266;48.756;9.246;2023-09-12T04:02:31;15.70;99.90
55648;DHT22;45266;48.756;9.246;2023-09-12T04:03:33;15.70;99.90
55648;DHT22;45266;48.756;9.246;2023-09-12T04:04:35;15.70;99.90
55648;DHT22;45266;48.756;9.246;2023-09-12T04:05:37;15.70;99.90
55648;DHT22;45266;48.756;9.246;2023-09-12T04:06:38;15.70;99.90
55648;DHT22;45266;48.756;9.246;2023-09-12T04:07:41;15.70;99.90
55648;DHT22;45266;48.756;9.246;2023-09-12T04:08:42;15.70;99.90
55648;DHT22;45266;48.756;9.246;2023-09-12T04:09:44;15.70;99.90
55648;DHT22;45266;48.756;9.246;2023-09-12T04:10:46;15.70;99.90
55648;DHT22;45266;48.756;9.246;2023-09-12T04:11:48;15.60;99.90
55648;DHT22;45266;48.756;9.246;2023-09-12T04:12:53;15.60;99.90
55648;DHT22;45266;48.756;9.246;2023-09-12T04:13:55;15.60;99.90
55648;DHT22;45266;48.756;9.246;2023-09-12T04:14:57;15.60;99.90
55648;DHT22;45266;48.756;9.246;2023-09-12T04:15:58;15.60;99.90
55648;DHT22;45266;48.756;9.246;2023-09-12T04:17:00;15.60;99.90
55648;DHT22;45266;48.756;9.246;2023-09-12T04:18:03;15.60;99.90
55648;DHT22;45266;48.756;9.246;2023-09-12T04:19:05;15.60;99.90
55648;DHT22;45266;48.756;9.246;2023-09-12T04:20:08;15.60;99.90
55648;DHT22;45266;48.756;9.246;2023-09-12T04:21:10;15.60;99.90
55648;DHT22;45266;48.756;9.246;2023-09-12T04:22:13;15.60;99.90
55648;DHT22;45266;48.756;9.246;2023-09-12T04:23:16;15.60;99.90
55648;DHT22;45266;48.756;9.246;2023-09-12T04:24:17;15.60;99.90
55648;DHT22;45266;48.756;9.246;2023-09-12T04:25:19;15.60;99.90
55648;DHT22;45266;48.756;9.246;2023-09-12T04:26:21;15.60;99.90
55648;DHT22;45266;48.756;9.246;2023-09-12T04:27:23;15.60;99.90
55648;DHT22;45266;48.756;9.246;2023-09-12T04:28:25;15.60;99.90
55648;DHT22;45266;48.756;9.246;2023-09-12T04:29:28;15.60;99.90
55648;DHT22;45266;48.756;9.246;2023-09-12T04:30:30;15.60;99.90
55648;DHT22;45266;48.756;9.246;2023-09-12T04:31:32;15.60;99.90
55648;DHT22;45266;48.756;9.246;2023-09-12T04:32:34;15.60;99.90
55648;DHT22;45266;48.756;9.246;2023-09-12T04:33:35;15.60;99.90
55648;DHT22;45266;48.756;9.246;2023-09-12T04:34:37;15.60;99.90
55648;DHT22;45266;48.756;9.246;2023-09-12T04:35:39;15.60;99.90
55648;DHT22;45266;48.756;9.246;2023-09-12T04:36:41;15.60;99.90
55648;DHT22;45266;48.756;9.246;2023-09-12T04:37:43;15.60;99.90
55648;DHT22;45266;48.756;9.246;2023-09-12T04:38:45;15.60;99.90
55648;DHT22;45266;48.756;9.246;2023-09-12T04:39:48;15.60;99.90
55648;DHT22;45266;48.756;9.246;2023-09-12T04:40:56;15.60;99.90
55648;DHT22;45266;48.756;9.246;2023-09-12T04:41:59;15.60;99.90
55648;DHT22;45266;48.756;9.246;2023-09-12T04:43:00;15.60;99.90
55648;DHT22;45266;48.756;9.246;2023-09-12T04:44:02;15.60;99.90
55648;DHT22;45266;48.756;9.246;2023-09-12T04:45:04;15.60;99.90
55648;DHT22;45266;48.756;9.246;2023-09-12T04:46:07;15.60;99.90
55648;DHT22;45266;48.756;9.246;2023-09-12T04:47:09;15.60;99.90
55648;DHT22;45266;48.756;9.246;2023-09-12T04:48:14;15.60;99.90
55648;DHT22;45266;48.756;9.246;2023-09-12T04:49:15;15.60;99.90
55648;DHT22;45266;48.756;9.246;2023-09-12T04:50:17;15.50;99.90
55648;DHT22;45266;48.756;9.246;2023-09-12T04:51:19;15.50;99.90
55648;DHT22;45266;48.756;9.246;2023-09-12T04:52:21;15.50;99.90
55648;DHT22;45266;48.756;9.246;2023-09-12T04:53:23;15.50;99.90
55648;DHT22;45266;48.756;9.246;2023-09-12T04:54:25;15.60;99.90
55648;DHT22;45266;48.756;9.246;2023-09-12T04:55:26;15.50;99.90
55648;DHT22;45266;48.756;9.246;2023-09-12T04:56:28;15.50;99.90
55648;DHT22;45266;48.756;9.246;2023-09-12T04:57:30;15.50;99.90
55648;DHT22;45266;48.756;9.246;2023-09-12T04:58:33;15.50;99.90
55648;DHT22;45266;48.756;9.246;2023-09-12T04:59:34;15.50;99.90
55648;DHT22;45266;48.756;9.246;2023-09-12T05:00:39;15.50;99.90
55648;DHT22;45266;48.756;9.246;2023-09-12T05:01:41;15.50;99.90
55648;DHT22;45266;48.756;9.246;2023-09-12T05:02:43;15.50;99.90
55648;DHT22;45266;48.756;9.246;2023-09-12T05:03:45;15.50;99.90
55648;DHT22;45266;48.756;9.246;2023-09-12T05:04:47;15.60;99.90
55648;DHT22;45266;48.756;9.246;2023-09-12T05:05:50;15.50;99.90
55648;DHT22;45266;48.756;9.246;2023-09-12T05:06:52;15.60;99.90
55648;DHT22;45266;48.756;9.246;2023-09-12T05:07:55;15.50;99.90
55648;DHT22;45266;48.756;9.246;2023-09-12T05:08:57;15.60;99.90
55648;DHT22;45266;48.756;9.246;2023-09-12T05:09:58;15.60;99.90
55648;DHT22;45266;48.756;9.246;2023-09-12T05:11:01;15.60;99.90
55648;DHT22;45266;48.756;9.246;2023-09-12T05:12:04;15.60;99.90
55648;DHT22;45266;48.756;9.246;2023-09-12T05:13:06;15.60;99.90
55648;DHT22;45266;48.756;9.246;2023-09-12T05:14:09;15.60;99.90
55648;DHT22;45266;48.756;9.246;2023-09-12T05:15:11;15.70;99.90
55648;DHT22;45266;48.756;9.246;2023-09-12T05:16:13;15.60;99.90
55648;DHT22;45266;48.756;9.246;2023-09-12T05:17:15;15.60;99.90
55648;DHT22;45266;48.756;9.246;2023-09-12T05:18:17;15.60;99.90
55648;DHT22;45266;48.756;9.246;2023-09-12T05:19:19;15.70;99.90
55648;DHT22;45266;48.756;9.246;2023-09-12T05:20:21;15.70;99.90
55648;DHT22;45266;48.756;9.246;2023-09-12T05:21:23;15.70;99.90
55648;DHT22;45266;48.756;9.246;2023-09-12T05:22:25;15.70;99.90
55648;DHT22;45266;48.756;9.246;2023-09-12T05:23:27;15.70;99.90
55648;DHT22;45266;48.756;9.246;2023-09-12T05:24:28;15.70;99.90
55648;DHT22;45266;48.756;9.246;2023-09-12T05:25:30;15.70;99.90
55648;DHT22;45266;48.756;9.246;2023-09-12T05:26:32;15.70;99.90
55648;DHT22;45266;48.756;9.246;2023-09-12T05:27:34;15.70;99.90
55648;DHT22;45266;48.756;9.246;2023-09-12T05:28:36;15.80;99.90
55648;DHT22;45266;48.756;9.246;2023-09-12T05:29:38;15.80;99.90
55648;DHT22;45266;48.756;9.246;2023-09-12T05:30:39;15.80;99.90
55648;DHT22;45266;48.756;9.246;2023-09-12T05:31:41;15.80;99.90
55648;DHT22;45266;48.756;9.246;2023-09-12T05:32:43;15.80;99.90
55648;DHT22;45266;48.756;9.246;2023-09-12T05:33:45;15.80;99.90
55648;DHT22;45266;48.756;9.246;2023-09-12T05:34:47;15.80;99.90
55648;DHT22;45266;48.756;9.246;2023-09-12T05:35:51;15.80;99.90
55648;DHT22;45266;48.756;9.246;2023-09-12T05:36:53;15.90;99.90
55648;DHT22;45266;48.756;9.246;2023-09-12T05:37:54;15.90;99.90
55648;DHT22;45266;48.756;9.246;2023-09-12T05:38:57;15.90;99.90
55648;DHT22;45266;48.756;9.246;2023-09-12T05:40:01;15.90;99.90
55648;DHT22;45266;48.756;9.246;2023-09-12T05:41:03;15.90;99.90
55648;DHT22;45266;48.756;9.246;2023-09-12T05:42:05;16.00;99.90
55648;DHT22;45266;48.756;9.246;2023-09-12T05:43:07;16.00;99.90
55648;DHT22;45266;48.756;9.246;2023-09-12T05:44:09;16.00;99.90
55648;DHT22;45266;48.756;9.246;2023-09-12T05:45:11;16.00;99.90
55648;DHT22;45266;48.756;9.246;2023-09-12T05:46:13;16.10;99.90
55648;DHT22;45266;48.756;9.246;2023-09-12T05:47:15;16.10;99.90
55648;DHT22;45266;48.756;9.246;2023-09-12T05:48:17;16.20;99.90
55648;DHT22;45266;48.756;9.246;2023-09-12T05:49:19;16.20;99.90
55648;DHT22;45266;48.756;9.246;2023-09-12T05:50:21;16.20;99.90
55648;DHT22;45266;48.756;9.246;2023-09-12T05:51:23;16.20;99.90
55648;DHT22;45266;48.756;9.246;2023-09-12T05:52:25;16.30;99.90
55648;DHT22;45266;48.756;9.246;2023-09-12T05:53:27;16.30;99.90
55648;DHT22;45266;48.756;9.246;2023-09-12T05:54:28;16.40;99.90
55648;DHT22;45266;48.756;9.246;2023-09-12T05:55:30;16.50;99.90
55648;DHT22;45266;48.756;9.246;2023-09-12T05:56:32;16.50;99.90
55648;DHT22;45266;48.756;9.246;2023-09-12T05:57:34;16.50;99.90
55648;DHT22;45266;48.756;9.246;2023-09-12T05:58:36;16.60;99.90
55648;DHT22;45266;48.756;9.246;2023-09-12T05:59:43;16.60;99.90
55648;DHT22;45266;48.756;9.246;2023-09-12T06:00:45;16.70;99.90
55648;DHT22;45266;48.756;9.246;2023-09-12T06:01:50;16.70;99.90
55648;DHT22;45266;48.756;9.246;2023-09-12T06:02:52;16.80;99.90
55648;DHT22;45266;48.756;9.246;2023-09-12T06:03:54;16.80;99.90
55648;DHT22;45266;48.756;9.246;2023-09-12T06:04:56;16.90;99.90
55648;DHT22;45266;48.756;9.246;2023-09-12T06:05:58;17.00;99.90
55648;DHT22;45266;48.756;9.246;2023-09-12T06:07:02;17.00;99.90
55648;DHT22;45266;48.756;9.246;2023-09-12T06:08:04;17.00;99.90
55648;DHT22;45266;48.756;9.246;2023-09-12T06:09:06;17.10;99.90
55648;DHT22;45266;48.756;9.246;2023-09-12T06:10:10;17.10;99.90
55648;DHT22;45266;48.756;9.246;2023-09-12T06:11:12;17.20;99.90
55648;DHT22;45266;48.756;9.246;2023-09-12T06:12:14;17.20;99.90
55648;DHT22;45266;48.756;9.246;2023-09-12T06:13:15;17.30;99.90
55648;DHT22;45266;48.756;9.246;2023-09-12T06:14:17;17.30;99.90
55648;DHT22;45266;48.756;9.246;2023-09-12T06:15:19;17.40;99.90
55648;DHT22;45266;48.756;9.246;2023-09-12T06:16:21;17.40;99.90
55648;DHT22;45266;48.756;9.246;2023-09-12T06:17:23;17.50;99.90
55648;DHT22;45266;48.756;9.246;2023-09-12T06:18:25;17.50;99.90
55648;DHT22;45266;48.756;9.246;2023-09-12T06:19:30;17.60;99.90
55648;DHT22;45266;48.756;9.246;2023-09-12T06:20:32;17.60;99.90
55648;DHT22;45266;48.756;9.246;2023-09-12T06:21:33;17.70;99.90
55648;DHT22;45266;48.756;9.246;2023-09-12T06:22:35;17.70;99.90
55648;DHT22;45266;48.756;9.246;2023-09-12T06:23:37;17.80;99.90
55648;DHT22;45266;48.756;9.246;2023-09-12T06:24:39;17.80;99.90
55648;DHT22;45266;48.756;9.246;2023-09-12T06:25:41;17.90;99.90
55648;DHT22;45266;48.756;9.246;2023-09-12T06:26:43;17.90;99.90
55648;DHT22;45266;48.756;9.246;2023-09-12T06:27:45;18.00;99.90
55648;DHT22;45266;48.756;9.246;2023-09-12T06:28:47;18.00;99.90
55648;DHT22;45266;48.756;9.246;2023-09-12T06:29:49;18.00;99.90
55648;DHT22;45266;48.756;9.246;2023-09-12T06:30:51;18.10;99.90
55648;DHT22;45266;48.756;9.246;2023-09-12T06:31:53;18.10;99.90
55648;DHT22;45266;48.756;9.246;2023-09-12T06:32:56;18.20;99.90
55648;DHT22;45266;48.756;9.246;2023-09-12T06:33:58;18.20;99.90
55648;DHT22;45266;48.756;9.246;2023-09-12T06:35:00;18.20;99.90
55648;DHT22;45266;48.756;9.246;2023-09-12T06:36:01;18.30;99.90
55648;DHT22;45266;48.756;9.246;2023-09-12T06:37:04;18.30;99.90
55648;DHT22;45266;48.756;9.246;2023-09-12T06:38:06;18.30;99.90